sensor_id;sensor_type;location;lat;lon;timestamp;pressure;altitude;pressure_sealevel;temperature;humidity
27304;BME280;14791;52.392;13.092;2023-04-05T00:01:38;102072.84;;;8.53;37.30
27304;BME280;14791;52.392;13.092;2023-04-05T00:04:07;102072.05;;;8.49;37.40
27304;BME280;14791;52.392;13.092;2023-04-05T00:06:36;102061.16;;;8.44;37.53
27304;BME280;14791;52.392;13.092;2023-04-05T00:09:06;102058.16;;;8.40;37.67
27304;BME280;14791;52.392;13.092;2023-04-05T00:11:35;102055.17;;;8.36;37.77
27304;BME280;14791;52.392;13.092;2023-04-05T00:14:04;102057.52;;;8.31;37.89
27304;BME280;14791;52.392;13.092;2023-04-05T00:16:34;102052.80;;;8.26;37.99
27304;BME280;14791;52.392;13.092;2023-04-05T00:19:03;102052.94;;;8.22;38.04
27304;BME280;14791;52.392;13.092;2023-04-05T00:21:32;102056.96;;;8.20;38.12
27304;BME280;14791;52.392;13.092;2023-04-05T00:24:01;102053.94;;;8.18;38.20
27304;BME280;14791;52.392;13.092;2023-04-05T00:26:30;102061.53;;;8.17;38.29
27304;BME280;14791;52.392;13.092;2023-04-05T00:28:59;102061.16;;;8.14;38.29
27304;BME280;14791;52.392;13.092;2023-04-05T00:31:29;102057.67;;;8.12;38.33
27304;BME280;14791;52.392;13.092;2023-04-05T00:33:58;102054.21;;;8.08;38.35
27304;BME280;14791;52.392;13.092;2023-04-05T00:36:27;102052.95;;;8.07;38.38
27304;BME280;14791;52.392;13.092;2023-04-05T00:38:55;102052.52;;;8.06;38.37
27304;BME280;14791;52.392;13.092;2023-04-05T00:41:24;102060.50;;;8.06;38.35
27304;BME280;14791;52.392;13.092;2023-04-05T00:43:53;102057.44;;;8.05;38.25
27304;BME280;14791;52.392;13.092;2023-04-05T00:46:23;102057.88;;;8.04;38.22
27304;BME280;14791;52.392;13.092;2023-04-05T00:48:52;102055.75;;;8.02;38.17
27304;BME280;14791;52.392;13.092;2023-04-05T00:51:22;102042.88;;;8.02;38.08
27304;BME280;14791;52.392;13.092;2023-04-05T00:53:51;102049.12;;;8.01;38.00
27304;BME280;14791;52.392;13.092;2023-04-05T00:56:21;102059.78;;;8.01;37.97
27304;BME280;14791;52.392;13.092;2023-04-05T00:58:51;102064.30;;;7.97;37.96
27304;BME280;14791;52.392;13.092;2023-04-05T01:01:20;102058.61;;;7.95;37.99
27304;BME280;14791;52.392;13.092;2023-04-05T01:03:52;102052.99;;;7.91;38.04
27304;BME280;14791;52.392;13.092;2023-04-05T01:12:21;102047.70;;;7.74;38.28
27304;BME280;14791;52.392;13.092;2023-04-05T01:14:46;102045.30;;;7.65;38.37
27304;BME280;14791;52.392;13.092;2023-04-05T01:17:19;102047.99;;;7.63;38.40
27304;BME280;14791;52.392;13.092;2023-04-05T01:19:59;102042.67;;;7.63;38.41
27304;BME280;14791;52.392;13.092;2023-04-05T01:31:14;102040.25;;;7.39;38.64
27304;BME280;14791;52.392;13.092;2023-04-05T01:34:04;102042.66;;;7.32;38.78
27304;BME280;14791;52.392;13.092;2023-04-05T01:36:53;102042.34;;;7.28;38.89
27304;BME280;14791;52.392;13.092;2023-04-05T01:39:16;102041.08;;;7.25;38.96
27304;BME280;14791;52.392;13.092;2023-04-05T01:41:47;102041.63;;;7.21;39.01
27304;BME280;14791;52.392;13.092;2023-04-05T01:44:16;102043.43;;;7.21;39.06
27304;BME280;14791;52.392;13.092;2023-04-05T01:46:45;102030.94;;;7.23;39.04
27304;BME280;14791;52.392;13.092;2023-04-05T01:49:14;102037.53;;;7.26;39.05
27304;BME280;14791;52.392;13.092;2023-04-05T01:51:43;102034.41;;;7.27;39.05
27304;BME280;14791;52.392;13.092;2023-04-05T01:54:12;102027.30;;;7.27;39.06
27304;BME280;14791;52.392;13.092;2023-04-05T01:56:42;102028.59;;;7.29;39.10
27304;BME280;14791;52.392;13.092;2023-04-05T01:59:11;102025.08;;;7.28;39.12
27304;BME280;14791;52.392;13.092;2023-04-05T02:01:40;102034.28;;;7.31;39.13
27304;BME280;14791;52.392;13.092;2023-04-05T02:04:09;102028.97;;;7.31;39.09
27304;BME280;14791;52.392;13.092;2023-04-05T02:06:38;102028.97;;;7.31;39.08
27304;BME280;14791;52.392;13.092;2023-04-05T02:09:08;102021.48;;;7.29;39.05
27304;BME280;14791;52.392;13.092;2023-04-05T02:11:37;102025.84;;;7.32;39.06
27304;BME280;14791;52.392;13.092;2023-04-05T02:14:06;102026.71;;;7.32;39.07
27304;BME280;14791;52.392;13.092;2023-04-05T02:16:36;102022.32;;;7.31;39.03
27304;BME280;14791;52.392;13.092;2023-04-05T02:19:05;102025.94;;;7.29;39.07
27304;BME280;14791;52.392;13.092;2023-04-05T02:21:34;102025.56;;;7.26;39.12
27304;BME280;14791;52.392;13.092;2023-04-05T02:24:03;102022.54;;;7.23;39.10
27304;BME280;14791;52.392;13.092;2023-04-05T02:26:33;102019.08;;;7.20;39.18
27304;BME280;14791;52.392;13.092;2023-04-05T02:29:02;102026.19;;;7.19;39.27
27304;BME280;14791;52.392;13.092;2023-04-05T02:31:30;102017.81;;;7.18;39.32
27304;BME280;14791;52.392;13.092;2023-04-05T02:33:59;102022.23;;;7.18;39.32
27304;BME280;14791;52.392;13.092;2023-04-05T02:36:28;102020.96;;;7.16;39.41
27304;BME280;14791;52.392;13.092;2023-04-05T02:38:57;102024.58;;;7.14;39.46
27304;BME280;14791;52.392;13.092;2023-04-05T02:41:26;102019.29;;;7.12;39.46
27304;BME280;14791;52.392;13.092;2023-04-05T02:43:55;102016.66;;;7.11;39.52
27304;BME280;14791;52.392;13.092;2023-04-05T02:46:24;102017.62;;;7.08;39.56
27304;BME280;14791;52.392;13.092;2023-04-05T02:48:53;102016.75;;;7.08;39.55
27304;BME280;14791;52.392;13.092;2023-04-05T02:51:24;102016.78;;;7.06;39.54
27304;BME280;14791;52.392;13.092;2023-04-05T02:53:53;102013.26;;;7.06;39.62
27304;BME280;14791;52.392;13.092;2023-04-05T02:56:22;102012.42;;;7.03;39.63
27304;BME280;14791;52.392;13.092;2023-04-05T02:58:53;102005.88;;;7.00;39.66
27304;BME280;14791;52.392;13.092;2023-04-05T03:01:23;102010.81;;;6.98;39.72
27304;BME280;14791;52.392;13.092;2023-04-05T03:03:53;102009.60;;;6.93;39.79
27304;BME280;14791;52.392;13.092;2023-04-05T03:06:22;102007.44;;;6.91;39.82
27304;BME280;14791;52.392;13.092;2023-04-05T03:08:51;102013.67;;;6.90;39.87
27304;BME280;14791;52.392;13.092;2023-04-05T03:11:22;102012.84;;;6.88;39.91
27304;BME280;14791;52.392;13.092;2023-04-05T03:13:52;102008.45;;;6.87;39.99
27304;BME280;14791;52.392;13.092;2023-04-05T03:16:23;102001.87;;;6.84;40.03
27304;BME280;14791;52.392;13.092;2023-04-05T03:18:52;102009.44;;;6.83;40.07
27304;BME280;14791;52.392;13.092;2023-04-05T03:21:21;102006.34;;;6.82;40.16
27304;BME280;14791;52.392;13.092;2023-04-05T03:23:52;102005.94;;;6.81;40.23
27304;BME280;14791;52.392;13.092;2023-04-05T03:26:23;102009.47;;;6.81;40.29
27304;BME280;14791;52.392;13.092;2023-04-05T03:28:53;102001.09;;;6.80;40.35
27304;BME280;14791;52.392;13.092;2023-04-05T03:31:24;102003.31;;;6.79;40.45
27304;BME280;14791;52.392;13.092;2023-04-05T03:33:55;102005.02;;;6.82;40.52
27304;BME280;14791;52.392;13.092;2023-04-05T03:36:25;101993.50;;;6.83;40.55
27304;BME280;14791;52.392;13.092;2023-04-05T03:38:56;101992.08;;;6.86;40.51
27304;BME280;14791;52.392;13.092;2023-04-05T03:41:25;101988.53;;;6.87;40.50
27304;BME280;14791;52.392;13.092;2023-04-05T03:43:55;101991.59;;;6.88;40.48
27304;BME280;14791;52.392;13.092;2023-04-05T03:46:24;101989.86;;;6.87;40.46
27304;BME280;14791;52.392;13.092;2023-04-05T03:48:53;101986.77;;;6.86;40.48
27304;BME280;14791;52.392;13.092;2023-04-05T03:51:22;101982.41;;;6.84;40.54
27304;BME280;14791;52.392;13.092;2023-04-05T03:53:51;101981.55;;;6.83;40.53
27304;BME280;14791;52.392;13.092;2023-04-05T03:56:21;101977.56;;;6.83;40.53
27304;BME280;14791;52.392;13.092;2023-04-05T03:58:51;101975.31;;;6.84;40.53
27304;BME280;14791;52.392;13.092;2023-04-05T04:01:22;101975.31;;;6.84;40.47
27304;BME280;14791;52.392;13.092;2023-04-05T04:03:51;101970.00;;;6.84;40.48
27304;BME280;14791;52.392;13.092;2023-04-05T04:06:20;101975.74;;;6.85;40.46
27304;BME280;14791;52.392;13.092;2023-04-05T04:08:49;101967.31;;;6.86;40.44
27304;BME280;14791;52.392;13.092;2023-04-05T04:11:18;101968.61;;;6.87;40.42
27304;BME280;14791;52.392;13.092;2023-04-05T04:13:48;101963.30;;;6.87;40.40
27304;BME280;14791;52.392;13.092;2023-04-05T04:16:22;101964.10;;;6.89;40.37
27304;BME280;14791;52.392;13.092;2023-04-05T04:19:08;101962.87;;;6.86;40.35
27304;BME280;14791;52.392;13.092;2023-04-05T04:21:39;101958.14;;;6.81;40.38
27304;BME280;14791;52.392;13.092;2023-04-05T04:24:14;101963.97;;;6.77;40.47
27304;BME280;14791;52.392;13.092;2023-04-05T04:26:49;101971.56;;;6.75;40.58
27304;BME280;14791;52.392;13.092;2023-04-05T04:29:34;101972.02;;;6.74;40.67
27304;BME280;14791;52.392;13.092;2023-04-05T04:32:20;101963.16;;;6.75;40.80
27304;BME280;14791;52.392;13.092;2023-04-05T04:35:04;101966.19;;;6.78;40.95
27304;BME280;14791;52.392;13.092;2023-04-05T04:37:35;101969.10;;;6.85;41.05
27304;BME280;14791;52.392;13.092;2023-04-05T04:40:22;101968.41;;;6.95;41.11
27304;BME280;14791;52.392;13.092;2023-04-05T04:43:12;101971.31;;;7.02;41.12
27304;BME280;14791;52.392;13.092;2023-04-05T04:45:46;101969.86;;;7.07;41.09
27304;BME280;14791;52.392;13.092;2023-04-05T04:48:22;101972.33;;;7.13;41.06
27304;BME280;14791;52.392;13.092;2023-04-05T04:50:53;101978.87;;;7.16;41.01
27304;BME280;14791;52.392;13.092;2023-04-05T04:53:24;101977.48;;;7.19;41.06
27304;BME280;14791;52.392;13.092;2023-04-05T04:55:52;101980.97;;;7.21;41.05
27304;BME280;14791;52.392;13.092;2023-04-05T04:58:23;101979.92;;;7.27;41.08
27304;BME280;14791;52.392;13.092;2023-04-05T05:00:53;101974.48;;;7.31;41.04
27304;BME280;14791;52.392;13.092;2023-04-05T05:03:24;101972.56;;;7.36;40.94
27304;BME280;14791;52.392;13.092;2023-04-05T05:05:53;101972.92;;;7.39;40.89
27304;BME280;14791;52.392;13.092;2023-04-05T05:08:23;101963.59;;;7.40;40.82
27304;BME280;14791;52.392;13.092;2023-04-05T05:10:52;101969.77;;;7.41;40.80
27304;BME280;14791;52.392;13.092;2023-04-05T05:13:21;101974.62;;;7.41;40.77
27304;BME280;14791;52.392;13.092;2023-04-05T05:15:50;101966.64;;;7.41;40.75
27304;BME280;14791;52.392;13.092;2023-04-05T05:18:19;101966.24;;;7.40;40.73
27304;BME280;14791;52.392;13.092;2023-04-05T05:20:50;101963.59;;;7.40;40.71
27304;BME280;14791;52.392;13.092;2023-04-05T05:23:19;101969.80;;;7.39;40.67
27304;BME280;14791;52.392;13.092;2023-04-05T05:25:48;101966.31;;;7.37;40.72
27304;BME280;14791;52.392;13.092;2023-04-05T05:28:17;101968.97;;;7.37;40.74
27304;BME280;14791;52.392;13.092;2023-04-05T05:30:46;101978.27;;;7.37;40.75
27304;BME280;14791;52.392;13.092;2023-04-05T05:33:14;101975.22;;;7.36;40.80
27304;BME280;14791;52.392;13.092;2023-04-05T05:35:47;101976.94;;;7.37;40.84
27304;BME280;14791;52.392;13.092;2023-04-05T05:38:19;101977.38;;;7.38;40.87
27304;BME280;14791;52.392;13.092;2023-04-05T05:40:56;101980.44;;;7.39;40.91
27304;BME280;14791;52.392;13.092;2023-04-05T05:43:25;101983.42;;;7.43;40.98
27304;BME280;14791;52.392;13.092;2023-04-05T05:45:54;101970.10;;;7.45;40.98
27304;BME280;14791;52.392;13.092;2023-04-05T05:48:23;101978.34;;;7.51;40.90
27304;BME280;14791;52.392;13.092;2023-04-05T05:50:52;101974.70;;;7.55;40.87
27304;BME280;14791;52.392;13.092;2023-04-05T05:53:21;101966.65;;;7.56;40.84
27304;BME280;14791;52.392;13.092;2023-04-05T05:55:50;101966.58;;;7.59;40.81
27304;BME280;14791;52.392;13.092;2023-04-05T05:58:19;101961.70;;;7.59;40.82
27304;BME280;14791;52.392;13.092;2023-04-05T06:00:48;101964.29;;;7.62;40.85
27304;BME280;14791;52.392;13.092;2023-04-05T06:03:18;101968.17;;;7.65;40.82
27304;BME280;14791;52.392;13.092;2023-04-05T06:05:57;101967.21;;;7.67;40.80
27304;BME280;14791;52.392;13.092;2023-04-05T06:08:23;101965.41;;;7.68;40.76
27304;BME280;14791;52.392;13.092;2023-04-05T06:10:52;101964.52;;;7.69;40.78
27304;BME280;14791;52.392;13.092;2023-04-05T06:13:21;101967.58;;;7.70;40.83
27304;BME280;14791;52.392;13.092;2023-04-05T06:15:51;101969.73;;;7.72;40.85
27304;BME280;14791;52.392;13.092;2023-04-05T06:18:20;101966.97;;;7.75;40.95
27304;BME280;14791;52.392;13.092;2023-04-05T06:20:48;101963.31;;;7.79;40.95
27304;BME280;14791;52.392;13.092;2023-04-05T06:23:18;101964.97;;;7.83;40.97
27304;BME280;14791;52.392;13.092;2023-04-05T06:25:47;101959.94;;;7.87;41.02
27304;BME280;14791;52.392;13.092;2023-04-05T06:28:16;101958.47;;;7.92;40.95
27304;BME280;14791;52.392;13.092;2023-04-05T06:30:44;101968.08;;;7.98;40.97
27304;BME280;14791;52.392;13.092;2023-04-05T06:33:13;101964.38;;;8.02;40.97
27304;BME280;14791;52.392;13.092;2023-04-05T06:35:42;101958.98;;;8.05;41.01
27304;BME280;14791;52.392;13.092;2023-04-05T06:38:11;101958.77;;;8.11;41.02
27304;BME280;14791;52.392;13.092;2023-04-05T06:40:40;101959.09;;;8.15;40.98
27304;BME280;14791;52.392;13.092;2023-04-05T06:43:09;101959.81;;;8.20;40.91
27304;BME280;14791;52.392;13.092;2023-04-05T06:45:38;101954.45;;;8.22;40.87
27304;BME280;14791;52.392;13.092;2023-04-05T06:48:07;101951.28;;;8.24;40.88
27304;BME280;14791;52.392;13.092;2023-04-05T06:50:36;101948.51;;;8.27;40.90
27304;BME280;14791;52.392;13.092;2023-04-05T06:53:06;101951.02;;;8.31;40.92
27304;BME280;14791;52.392;13.092;2023-04-05T06:55:35;101950.01;;;8.36;40.90
27304;BME280;14791;52.392;13.092;2023-04-05T06:58:03;101947.23;;;8.39;40.88
27304;BME280;14791;52.392;13.092;2023-04-05T07:00:33;101944.50;;;8.42;40.87
27304;BME280;14791;52.392;13.092;2023-04-05T07:03:02;101950.14;;;8.46;40.89
27304;BME280;14791;52.392;13.092;2023-04-05T07:05:30;101940.31;;;8.48;40.90
27304;BME280;14791;52.392;13.092;2023-04-05T07:07:59;101939.73;;;8.51;40.95
27304;BME280;14791;52.392;13.092;2023-04-05T07:10:28;101938.67;;;8.57;40.94
27304;BME280;14791;52.392;13.092;2023-04-05T07:12:57;101935.78;;;8.63;40.92
27304;BME280;14791;52.392;13.092;2023-04-05T07:15:26;101935.11;;;8.70;40.92
27304;BME280;14791;52.392;13.092;2023-04-05T07:17:55;101943.22;;;8.79;40.91
27304;BME280;14791;52.392;13.092;2023-04-05T07:20:24;101942.91;;;8.88;40.86
27304;BME280;14791;52.392;13.092;2023-04-05T07:22:53;101941.67;;;8.98;40.79
27304;BME280;14791;52.392;13.092;2023-04-05T07:25:22;101942.73;;;9.06;40.67
27304;BME280;14791;52.392;13.092;2023-04-05T07:27:50;101943.42;;;9.11;40.60
27304;BME280;14791;52.392;13.092;2023-04-05T07:30:19;101952.89;;;9.20;40.56
27304;BME280;14791;52.392;13.092;2023-04-05T07:32:48;101962.33;;;9.28;40.57
27304;BME280;14791;52.392;13.092;2023-04-05T07:35:17;101962.86;;;9.38;40.58
27304;BME280;14791;52.392;13.092;2023-04-05T07:37:46;101960.67;;;9.49;40.55
27304;BME280;14791;52.392;13.092;2023-04-05T07:40:15;101953.66;;;9.58;40.45
27304;BME280;14791;52.392;13.092;2023-04-05T07:42:44;101950.56;;;9.69;40.49
27304;BME280;14791;52.392;13.092;2023-04-05T07:45:13;101952.36;;;9.80;40.31
27304;BME280;14791;52.392;13.092;2023-04-05T07:47:42;101954.20;;;9.90;40.19
27304;BME280;14791;52.392;13.092;2023-04-05T07:50:10;101943.16;;;9.99;40.19
27304;BME280;14791;52.392;13.092;2023-04-05T07:52:41;101937.98;;;10.07;40.11
27304;BME280;14791;52.392;13.092;2023-04-05T07:55:10;101944.34;;;10.14;39.97
27304;BME280;14791;52.392;13.092;2023-04-05T07:57:39;101952.17;;;10.19;39.89
27304;BME280;14791;52.392;13.092;2023-04-05T08:00:09;101947.59;;;10.22;39.83
27304;BME280;14791;52.392;13.092;2023-04-05T08:02:42;101947.82;;;10.28;39.81
27304;BME280;14791;52.392;13.092;2023-04-05T08:05:11;101938.28;;;10.33;39.83
27304;BME280;14791;52.392;13.092;2023-04-05T08:07:40;101947.83;;;10.38;39.67
27304;BME280;14791;52.392;13.092;2023-04-05T08:10:09;101944.50;;;10.43;39.48
27304;BME280;14791;52.392;13.092;2023-04-05T08:12:59;101943.45;;;10.48;39.38
27304;BME280;14791;52.392;13.092;2023-04-05T08:15:28;101950.66;;;10.56;39.31
27304;BME280;14791;52.392;13.092;2023-04-05T08:17:57;101957.09;;;10.62;39.11
27304;BME280;14791;52.392;13.092;2023-04-05T08:20:26;101939.59;;;10.65;38.96
27304;BME280;14791;52.392;13.092;2023-04-05T08:22:55;101927.56;;;10.65;38.48
27304;BME280;14791;52.392;13.092;2023-04-05T08:25:24;101927.56;;;10.65;38.48
27304;BME280;14791;52.392;13.092;2023-04-05T08:27:53;101937.19;;;10.69;38.53
27304;BME280;14791;52.392;13.092;2023-04-05T08:30:22;101934.52;;;10.69;38.50
27304;BME280;14791;52.392;13.092;2023-04-05T08:32:50;101927.45;;;10.68;38.43
27304;BME280;14791;52.392;13.092;2023-04-05T08:35:19;101934.38;;;10.72;38.44
27304;BME280;14791;52.392;13.092;2023-04-05T08:37:48;101932.94;;;10.75;38.38
27304;BME280;14791;52.392;13.092;2023-04-05T08:40:17;101938.13;;;10.78;38.26
27304;BME280;14791;52.392;13.092;2023-04-05T08:43:02;101936.27;;;10.80;38.12
27304;BME280;14791;52.392;13.092;2023-04-05T08:45:27;101932.98;;;10.84;38.02
27304;BME280;14791;52.392;13.092;2023-04-05T08:47:57;101936.93;;;10.85;38.31
27304;BME280;14791;52.392;13.092;2023-04-05T08:50:26;101928.91;;;10.85;37.93
27304;BME280;14791;52.392;13.092;2023-04-05T08:52:55;101933.97;;;10.92;37.95
27304;BME280;14791;52.392;13.092;2023-04-05T08:55:25;101923.28;;;10.92;37.87
27304;BME280;14791;52.392;13.092;2023-04-05T08:57:55;101932.10;;;10.94;37.83
27304;BME280;14791;52.392;13.092;2023-04-05T09:00:26;101938.25;;;10.96;37.92
27304;BME280;14791;52.392;13.092;2023-04-05T09:02:57;101936.33;;;10.99;37.97
27304;BME280;14791;52.392;13.092;2023-04-05T09:05:29;101934.23;;;11.06;37.99
27304;BME280;14791;52.392;13.092;2023-04-05T09:08:00;101921.11;;;11.20;38.16
27304;BME280;14791;52.392;13.092;2023-04-05T09:10:29;101921.11;;;11.20;38.16
27304;BME280;14791;52.392;13.092;2023-04-05T09:12:59;101920.30;;;11.28;37.94
27304;BME280;14791;52.392;13.092;2023-04-05T09:15:30;101920.95;;;11.34;37.81
27304;BME280;14791;52.392;13.092;2023-04-05T09:17:59;101915.88;;;11.38;37.74
27304;BME280;14791;52.392;13.092;2023-04-05T09:20:28;101911.66;;;11.42;37.76
27304;BME280;14791;52.392;13.092;2023-04-05T09:22:57;101910.55;;;11.46;37.85
27304;BME280;14791;52.392;13.092;2023-04-05T09:28:01;101908.56;;;11.60;37.81
27304;BME280;14791;52.392;13.092;2023-04-05T09:30:30;101911.34;;;11.67;37.79
27304;BME280;14791;52.392;13.092;2023-04-05T09:33:00;101903.96;;;11.73;37.71
27304;BME280;14791;52.392;13.092;2023-04-05T09:35:30;101902.34;;;11.79;37.56
27304;BME280;14791;52.392;13.092;2023-04-05T09:38:01;101908.34;;;11.84;37.49
27304;BME280;14791;52.392;13.092;2023-04-05T09:40:45;101902.86;;;11.87;37.46
27304;BME280;14791;52.392;13.092;2023-04-05T09:43:41;101895.56;;;11.90;37.52
27304;BME280;14791;52.392;13.092;2023-04-05T09:49:00;101902.41;;;11.96;37.48
27304;BME280;14791;52.392;13.092;2023-04-05T09:51:37;101895.23;;;11.97;37.44
27304;BME280;14791;52.392;13.092;2023-04-05T09:54:09;101897.16;;;12.03;37.30
27304;BME280;14791;52.392;13.092;2023-04-05T09:56:40;101897.78;;;12.08;37.12
27304;BME280;14791;52.392;13.092;2023-04-05T09:59:11;101891.34;;;12.12;36.89
27304;BME280;14791;52.392;13.092;2023-04-05T10:01:43;101896.00;;;12.18;36.83
27304;BME280;14791;52.392;13.092;2023-04-05T10:04:12;101888.59;;;12.23;36.79
27304;BME280;14791;52.392;13.092;2023-04-05T10:06:42;101893.24;;;12.28;36.85
27304;BME280;14791;52.392;13.092;2023-04-05T10:09:11;101892.41;;;12.36;36.89
27304;BME280;14791;52.392;13.092;2023-04-05T10:11:43;101883.48;;;12.44;36.93
27304;BME280;14791;52.392;13.092;2023-04-05T10:14:12;101882.64;;;12.52;36.83
27304;BME280;14791;52.392;13.092;2023-04-05T10:16:50;101890.83;;;12.67;36.69
27304;BME280;14791;52.392;13.092;2023-04-05T10:19:25;101886.70;;;12.77;36.64
27304;BME280;14791;52.392;13.092;2023-04-05T10:21:53;101890.45;;;12.90;36.68
27304;BME280;14791;52.392;13.092;2023-04-05T10:24:32;101886.26;;;13.02;36.42
27304;BME280;14791;52.392;13.092;2023-04-05T10:27:08;101883.19;;;13.10;36.13
27304;BME280;14791;52.392;13.092;2023-04-05T10:29:49;101881.12;;;13.15;35.87
27304;BME280;14791;52.392;13.092;2023-04-05T10:32:16;101873.38;;;13.17;35.82
27304;BME280;14791;52.392;13.092;2023-04-05T10:34:49;101881.73;;;13.20;35.71
27304;BME280;14791;52.392;13.092;2023-04-05T10:40:23;101868.85;;;13.27;35.61
27304;BME280;14791;52.392;13.092;2023-04-05T10:42:54;101872.80;;;13.28;35.62
27304;BME280;14791;52.392;13.092;2023-04-05T10:45:25;101865.95;;;13.31;35.47
27304;BME280;14791;52.392;13.092;2023-04-05T10:48:02;101870.47;;;13.38;35.43
27304;BME280;14791;52.392;13.092;2023-04-05T10:50:29;101867.54;;;13.43;35.38
27304;BME280;14791;52.392;13.092;2023-04-05T10:53:00;101859.34;;;13.46;35.43
27304;BME280;14791;52.392;13.092;2023-04-05T10:55:30;101863.00;;;13.52;35.36
27304;BME280;14791;52.392;13.092;2023-04-05T10:57:59;101855.55;;;13.57;35.54
27304;BME280;14791;52.392;13.092;2023-04-05T11:00:30;101858.13;;;13.67;35.47
27304;BME280;14791;52.392;13.092;2023-04-05T11:02:59;101862.80;;;13.79;35.42
27304;BME280;14791;52.392;13.092;2023-04-05T11:05:30;101862.86;;;13.94;35.45
27304;BME280;14791;52.392;13.092;2023-04-05T11:08:03;101861.58;;;14.08;35.32
27304;BME280;14791;52.392;13.092;2023-04-05T11:10:34;101859.03;;;14.21;35.12
27304;BME280;14791;52.392;13.092;2023-04-05T11:13:06;101853.78;;;14.34;34.93
27304;BME280;14791;52.392;13.092;2023-04-05T11:15:35;101856.89;;;14.42;34.81
27304;BME280;14791;52.392;13.092;2023-04-05T11:20:52;101849.83;;;14.55;34.25
27304;BME280;14791;52.392;13.092;2023-04-05T11:23:24;101849.02;;;14.53;34.21
27304;BME280;14791;52.392;13.092;2023-04-05T11:26:04;101853.54;;;14.53;34.18
27304;BME280;14791;52.392;13.092;2023-04-05T11:28:35;101855.32;;;14.54;33.89
27304;BME280;14791;52.392;13.092;2023-04-05T11:31:20;101849.50;;;14.53;33.83
27304;BME280;14791;52.392;13.092;2023-04-05T11:34:04;101848.48;;;14.55;33.88
27304;BME280;14791;52.392;13.092;2023-04-05T11:36:44;101841.60;;;14.58;34.14
27304;BME280;14791;52.392;13.092;2023-04-05T11:42:10;101846.60;;;14.79;34.20
27304;BME280;14791;52.392;13.092;2023-04-05T11:44:44;101844.12;;;14.90;33.94
27304;BME280;14791;52.392;13.092;2023-04-05T11:47:18;101838.34;;;14.96;33.69
27304;BME280;14791;52.392;13.092;2023-04-05T11:49:51;101843.72;;;15.03;33.35
27304;BME280;14791;52.392;13.092;2023-04-05T11:52:20;101843.43;;;15.08;33.24
27304;BME280;14791;52.392;13.092;2023-04-05T11:54:51;101837.19;;;15.15;33.16
27304;BME280;14791;52.392;13.092;2023-04-05T11:57:21;101833.14;;;15.22;33.09
27304;BME280;14791;52.392;13.092;2023-04-05T11:59:52;101836.22;;;15.30;33.08
27304;BME280;14791;52.392;13.092;2023-04-05T12:02:21;101830.22;;;15.39;33.07
27304;BME280;14791;52.392;13.092;2023-04-05T12:04:57;101832.72;;;15.49;33.14
27304;BME280;14791;52.392;13.092;2023-04-05T12:07:27;101824.20;;;15.63;33.07
27304;BME280;14791;52.392;13.092;2023-04-05T12:10:03;101819.59;;;15.72;32.96
27304;BME280;14791;52.392;13.092;2023-04-05T12:12:40;101825.91;;;15.85;32.88
27304;BME280;14791;52.392;13.092;2023-04-05T12:15:11;101819.42;;;15.95;33.03
27304;BME280;14791;52.392;13.092;2023-04-05T12:17:47;101819.84;;;16.02;33.19
27304;BME280;14791;52.392;13.092;2023-04-05T12:20:24;101826.67;;;16.07;33.13
27304;BME280;14791;52.392;13.092;2023-04-05T12:22:55;101819.23;;;16.11;33.18
27304;BME280;14791;52.392;13.092;2023-04-05T12:25:25;101823.45;;;16.15;33.13
27304;BME280;14791;52.392;13.092;2023-04-05T12:27:54;101820.45;;;16.20;33.08
27304;BME280;14791;52.392;13.092;2023-04-05T12:30:23;101816.45;;;16.25;33.01
27304;BME280;14791;52.392;13.092;2023-04-05T12:32:53;101814.61;;;16.33;33.05
27304;BME280;14791;52.392;13.092;2023-04-05T12:35:30;101808.36;;;16.45;32.92
27304;BME280;14791;52.392;13.092;2023-04-05T12:37:57;101808.94;;;16.56;32.93
27304;BME280;14791;52.392;13.092;2023-04-05T12:40:27;101809.11;;;16.73;32.79
27304;BME280;14791;52.392;13.092;2023-04-05T12:43:05;101801.64;;;16.84;32.44
27304;BME280;14791;52.392;13.092;2023-04-05T12:45:34;101800.59;;;16.92;32.31
27304;BME280;14791;52.392;13.092;2023-04-05T12:48:08;101804.69;;;17.10;32.35
27304;BME280;14791;52.392;13.092;2023-04-05T12:50:43;101796.89;;;17.37;32.28
27304;BME280;14791;52.392;13.092;2023-04-05T12:53:21;101799.34;;;17.58;32.12
27304;BME280;14791;52.392;13.092;2023-04-05T12:55:50;101798.58;;;17.75;31.99
27304;BME280;14791;52.392;13.092;2023-04-05T12:58:31;101795.47;;;17.87;31.79
27304;BME280;14791;52.392;13.092;2023-04-05T13:00:53;101800.55;;;18.02;31.63
27304;BME280;14791;52.392;13.092;2023-04-05T13:03:24;101798.40;;;18.13;31.32
27304;BME280;14791;52.392;13.092;2023-04-05T13:05:53;101803.31;;;18.19;31.01
27304;BME280;14791;52.392;13.092;2023-04-05T13:08:22;101792.13;;;18.13;30.61
27304;BME280;14791;52.392;13.092;2023-04-05T13:10:53;101783.98;;;18.01;30.46
27304;BME280;14791;52.392;13.092;2023-04-05T13:13:22;101785.27;;;17.90;30.45
27304;BME280;14791;52.392;13.092;2023-04-05T13:15:51;101791.94;;;17.79;30.42
27304;BME280;14791;52.392;13.092;2023-04-05T13:18:20;101788.61;;;17.70;30.37
27304;BME280;14791;52.392;13.092;2023-04-05T13:20:49;101793.11;;;17.63;30.38
27304;BME280;14791;52.392;13.092;2023-04-05T13:23:18;101785.95;;;17.57;30.35
27304;BME280;14791;52.392;13.092;2023-04-05T13:25:47;101792.42;;;17.49;30.38
27304;BME280;14791;52.392;13.092;2023-04-05T13:28:16;101784.66;;;17.44;30.34
27304;BME280;14791;52.392;13.092;2023-04-05T13:30:45;101786.24;;;17.41;30.45
27304;BME280;14791;52.392;13.092;2023-04-05T13:33:14;101787.20;;;17.40;30.37